Time,TemperatureF,DewpointF,PressureIn,WindDirection,WindDirectionDegrees,WindSpeedMPH,WindSpeedGustMPH,Humidity,HourlyPrecipIn,Conditions,Clouds,dailyrainin,SoftwareType,DateUTC
2013-05-10 00:02:00,52.9,49.5,30.08,NE,34,0.0,0.0,88,0.00,,FEW,0.00,VWS V14.01,2013-05-10 07:02:00,
2013-05-10 00:08:00,52.8,49.3,30.08,NE,34,0.0,0.0,88,0.00,,FEW,0.00,VWS V14.01,2013-05-10 07:08:00,
2013-05-10 00:13:00,52.6,49.2,30.08,NE,34,0.0,0.0,88,0.00,,FEW,0.00,VWS V14.01,2013-05-10 07:13:00,
2013-05-10 00:18:00,52.5,49.0,30.08,NE,34,0.0,0.0,88,0.00,,FEW,0.00,VWS V14.01,2013-05-10 07:18:00,
2013-05-10 00:23:00,52.3,48.9,30.08,NE,34,0.0,0.0,88,0.00,,FEW,0.00,VWS V14.01,2013-05-10 07:23:00,
2013-05-10 00:28:00,52.3,48.9,30.08,NE,34,0.0,0.0,88,0.00,,FEW,0.00,VWS V14.01,2013-05-10 07:28:00,
2013-05-10 00:33:00,52.2,49.1,30.08,NE,34,0.0,0.0,89,0.00,,FEW,0.00,VWS V14.01,2013-05-10 07:33:00,
2013-05-10 00:38:00,52.2,49.1,30.08,NE,34,0.0,0.0,89,0.00,,FEW,0.00,VWS V14.01,2013-05-10 07:38:00,
2013-05-10 00:43:00,52.0,48.9,30.08,NE,34,0.0,0.0,89,0.00,,FEW,0.00,VWS V14.01,2013-05-10 07:43:00,
2013-05-10 00:48:00,51.9,48.8,30.09,NE,34,0.0,0.0,89,0.00,,FEW,0.00,VWS V14.01,2013-05-10 07:48:00,
2013-05-10 00:53:00,51.7,48.6,30.09,NE,34,0.0,0.0,89,0.00,,FEW,0.00,VWS V14.01,2013-05-10 07:53:00,
2013-05-10 00:58:00,51.6,48.5,30.09,NE,34,0.0,0.0,89,0.00,,FEW,0.00,VWS V14.01,2013-05-10 07:58:00,
2013-05-10 01:03:00,51.6,48.5,30.09,NE,34,0.0,0.0,89,0.00,,FEW,0.00,VWS V14.01,2013-05-10 08:03:00,
2013-05-10 01:08:00,51.4,48.3,30.09,NE,34,0.0,0.0,89,0.00,,FEW,0.00,VWS V14.01,2013-05-10 08:08:00,
2013-05-10 01:13:00,51.4,48.6,30.09,NE,34,0.0,0.0,90,0.00,,FEW,0.00,VWS V14.01,2013-05-10 08:13:00,
2013-05-10 01:18:00,51.3,48.5,30.10,NE,34,0.0,0.0,90,0.00,,FEW,0.00,VWS V14.01,2013-05-10 08:18:00,
2013-05-10 01:23:00,51.3,48.5,30.10,NE,34,0.0,0.0,90,0.00,,FEW,0.00,VWS V14.01,2013-05-10 08:23:00,
2013-05-10 01:28:00,51.1,48.3,30.10,NE,34,0.0,0.0,90,0.00,,FEW,0.00,VWS V14.01,2013-05-10 08:28:00,
2013-05-10 01:33:00,51.1,48.3,30.10,NE,34,0.0,0.0,90,0.00,,FEW,0.00,VWS V14.01,2013-05-10 08:33:00,
2013-05-10 01:38:00,51.0,48.2,30.10,NE,34,0.0,0.0,90,0.00,,FEW,0.00,VWS V14.01,2013-05-10 08:38:00,
2013-05-10 01:43:00,51.0,48.2,30.10,NE,34,0.0,0.0,90,0.00,,FEW,0.00,VWS V14.01,2013-05-10 08:43:00,
2013-05-10 01:48:00,51.0,48.5,30.10,NE,34,0.0,0.0,91,0.00,,FEW,0.00,VWS V14.01,2013-05-10 08:48:00,
2013-05-10 01:53:00,50.8,48.3,30.10,NE,34,0.0,0.0,91,0.00,,FEW,0.00,VWS V14.01,2013-05-10 08:53:00,
2013-05-10 01:58:00,50.7,48.2,30.10,NNE,33,0.0,0.0,91,0.00,,FEW,0.00,VWS V14.01,2013-05-10 08:58:00,
2013-05-10 02:03:00,50.5,48.0,30.10,NE,34,0.0,0.0,91,0.00,,FEW,0.00,VWS V14.01,2013-05-10 09:03:00,
2013-05-10 02:08:00,50.4,47.9,30.10,NE,34,0.0,0.0,91,0.00,,FEW,0.00,VWS V14.01,2013-05-10 09:08:00,
2013-05-10 02:13:00,50.4,47.9,30.10,NE,34,0.0,0.0,91,0.00,,FEW,0.00,VWS V14.01,2013-05-10 09:13:00,
2013-05-10 02:18:00,50.2,47.7,30.10,NE,34,0.0,0.0,91,0.00,,FEW,0.00,VWS V14.01,2013-05-10 09:18:00,
2013-05-10 02:23:00,50.1,47.6,30.10,NE,34,0.0,0.0,91,0.00,,FEW,0.00,VWS V14.01,2013-05-10 09:23:00,
2013-05-10 02:28:00,49.9,47.4,30.10,NE,34,0.0,0.0,91,0.00,,FEW,0.00,VWS V14.01,2013-05-10 09:28:00,
2013-05-10 02:33:00,49.9,47.4,30.11,NE,34,0.0,0.0,91,0.00,,FEW,0.00,VWS V14.01,2013-05-10 09:33:00,
2013-05-10 02:38:00,49.8,47.3,30.11,NE,34,0.0,0.0,91,0.00,,FEW,0.00,VWS V14.01,2013-05-10 09:38:00,
2013-05-10 02:43:00,49.6,47.1,30.11,NE,34,0.0,0.0,91,0.00,,FEW,0.00,VWS V14.01,2013-05-10 09:43:00,
2013-05-10 02:48:00,49.6,47.1,30.11,NE,34,0.0,0.0,91,0.00,,FEW,0.00,VWS V14.01,2013-05-10 09:48:00,
2013-05-10 02:53:00,49.6,47.1,30.11,NE,34,0.0,0.0,91,0.00,,FEW,0.00,VWS V14.01,2013-05-10 09:53:00,
2013-05-10 02:58:00,49.5,47.0,30.11,NE,34,0.0,0.0,91,0.00,,FEW,0.00,VWS V14.01,2013-05-10 09:58:00,
2013-05-10 03:03:00,49.4,46.9,30.11,NE,34,0.0,0.0,91,0.00,,FEW,0.00,VWS V14.01,2013-05-10 10:03:00,
2013-05-10 03:08:00,49.4,46.9,30.11,NE,34,0.0,0.0,91,0.00,,FEW,0.00,VWS V14.01,2013-05-10 10:08:00,
2013-05-10 03:13:00,49.2,46.7,30.11,NE,34,0.0,0.0,91,0.00,,FEW,0.00,VWS V14.01,2013-05-10 10:13:00,
2013-05-10 03:18:00,48.9,46.4,30.11,NE,34,0.0,0.0,91,0.00,,FEW,0.00,VWS V14.01,2013-05-10 10:18:00,
2013-05-10 03:23:00,48.9,46.4,30.11,NE,34,0.0,0.0,91,0.00,,FEW,0.00,VWS V14.01,2013-05-10 10:23:00,
2013-05-10 03:28:00,48.8,46.6,30.11,NE,34,0.0,0.0,92,0.00,,FEW,0.00,VWS V14.01,2013-05-10 10:28:00,
2013-05-10 03:33:00,48.8,46.3,30.11,NE,34,0.0,0.0,91,0.00,,FEW,0.00,VWS V14.01,2013-05-10 10:33:00,
2013-05-10 03:38:00,48.6,46.1,30.11,NE,34,0.0,0.0,91,0.00,,FEW,0.00,VWS V14.01,2013-05-10 10:38:00,
2013-05-10 03:43:00,48.5,46.3,30.11,NE,34,0.0,0.0,92,0.00,,FEW,0.00,VWS V14.01,2013-05-10 10:43:00,
2013-05-10 03:48:00,48.5,46.3,30.11,NE,34,0.0,0.0,92,0.00,,FEW,0.00,VWS V14.01,2013-05-10 10:48:00,
2013-05-10 03:53:00,48.5,46.3,30.11,NE,34,0.0,0.0,92,0.00,,FEW,0.00,VWS V14.01,2013-05-10 10:53:00,
2013-05-10 03:58:00,48.3,46.1,30.11,NE,34,0.0,0.0,92,0.00,,FEW,0.00,VWS V14.01,2013-05-10 10:58:00,
2013-05-10 04:03:00,48.3,46.1,30.11,NE,34,0.0,0.0,92,0.00,,FEW,0.00,VWS V14.01,2013-05-10 11:03:00,
2013-05-10 04:08:00,48.3,46.1,30.11,NE,34,0.0,0.0,92,0.00,,FEW,0.00,VWS V14.01,2013-05-10 11:08:00,
2013-05-10 04:13:00,48.2,46.0,30.11,NE,34,0.0,0.0,92,0.00,,FEW,0.00,VWS V14.01,2013-05-10 11:13:00,
2013-05-10 04:18:00,48.2,46.0,30.11,NE,34,0.0,0.0,92,0.00,,FEW,0.00,VWS V14.01,2013-05-10 11:18:00,
2013-05-10 04:23:00,48.0,45.8,30.11,NE,34,0.0,0.0,92,0.00,,FEW,0.00,VWS V14.01,2013-05-10 11:23:00,
2013-05-10 04:28:00,47.9,45.7,30.11,NE,34,0.0,0.0,92,0.00,,FEW,0.00,VWS V14.01,2013-05-10 11:28:00,
2013-05-10 04:33:00,47.7,45.5,30.10,NE,34,0.0,0.0,92,0.00,,FEW,0.00,VWS V14.01,2013-05-10 11:33:00,
2013-05-10 04:38:00,47.7,45.5,30.10,NE,34,0.0,0.0,92,0.00,,FEW,0.00,VWS V14.01,2013-05-10 11:38:00,
2013-05-10 04:43:00,47.7,45.5,30.10,NE,34,0.0,0.0,92,0.00,,FEW,0.00,VWS V14.01,2013-05-10 11:43:00,
2013-05-10 04:48:00,47.7,45.5,30.09,NE,34,0.0,0.0,92,0.00,,FEW,0.00,VWS V14.01,2013-05-10 11:48:00,
2013-05-10 04:53:00,47.7,45.5,30.09,NE,34,0.0,0.0,92,0.00,,FEW,0.00,VWS V14.01,2013-05-10 11:53:00,
2013-05-10 04:58:00,47.6,45.4,30.09,NE,34,0.0,0.0,92,0.00,,FEW,0.00,VWS V14.01,2013-05-10 11:58:00,
2013-05-10 05:03:00,47.4,45.2,30.10,NE,34,0.0,0.0,92,0.00,,FEW,0.00,VWS V14.01,2013-05-10 12:03:00,
2013-05-10 05:08:00,47.3,45.1,30.10,NE,34,0.0,0.0,92,0.00,,FEW,0.00,VWS V14.01,2013-05-10 12:08:00,
2013-05-10 05:13:00,47.1,44.9,30.10,NE,34,0.0,0.0,92,0.00,,FEW,0.00,VWS V14.01,2013-05-10 12:13:00,
2013-05-10 05:18:00,47.1,44.9,30.09,NE,34,0.0,0.0,92,0.00,,FEW,0.00,VWS V14.01,2013-05-10 12:18:00,
2013-05-10 05:23:00,47.0,44.8,30.09,NE,34,0.0,0.0,92,0.00,,FEW,0.00,VWS V14.01,2013-05-10 12:23:00,
2013-05-10 05:29:00,47.0,44.8,30.09,NE,34,0.0,0.0,92,0.00,,FEW,0.00,VWS V14.01,2013-05-10 12:29:00,
2013-05-10 05:34:00,47.0,44.8,30.09,NE,34,0.0,0.0,92,0.00,,FEW,0.00,VWS V14.01,2013-05-10 12:34:00,
2013-05-10 05:39:00,46.8,44.6,30.09,NE,34,0.0,0.0,92,0.00,,FEW,0.00,VWS V14.01,2013-05-10 12:39:00,
2013-05-10 05:44:00,46.7,44.5,30.09,NE,34,0.0,0.0,92,0.00,,FEW,0.00,VWS V14.01,2013-05-10 12:44:00,
2013-05-10 05:49:00,46.5,44.3,30.09,NE,34,0.0,0.0,92,0.00,,FEW,0.00,VWS V14.01,2013-05-10 12:49:00,
2013-05-10 05:54:00,46.5,44.3,30.09,NE,34,0.0,0.0,92,0.00,,FEW,0.00,VWS V14.01,2013-05-10 12:54:00,
2013-05-10 05:59:00,46.7,44.5,30.09,NE,34,0.0,0.0,92,0.00,,FEW,0.00,VWS V14.01,2013-05-10 12:59:00,
2013-05-10 06:04:00,46.7,44.5,30.10,NE,34,0.0,0.0,92,0.00,,FEW,0.00,VWS V14.01,2013-05-10 13:04:00,
2013-05-10 06:09:00,46.8,44.9,30.10,NE,34,0.0,0.0,93,0.00,,FEW,0.00,VWS V14.01,2013-05-10 13:09:00,
2013-05-10 06:14:00,47.0,45.1,30.11,NE,34,0.0,0.0,93,0.00,,FEW,0.00,VWS V14.01,2013-05-10 13:14:00,
2013-05-10 06:19:00,47.3,45.4,30.11,NE,34,0.0,0.0,93,0.00,,FEW,0.00,VWS V14.01,2013-05-10 13:19:00,
2013-05-10 06:24:00,47.3,45.4,30.11,NE,34,0.0,0.0,93,0.00,,FEW,0.00,VWS V14.01,2013-05-10 13:24:00,
2013-05-10 06:29:00,47.4,45.5,30.11,NE,34,0.0,0.0,93,0.00,,FEW,0.00,VWS V14.01,2013-05-10 13:29:00,
2013-05-10 06:34:00,47.6,45.7,30.11,NE,34,0.0,0.0,93,0.00,,FEW,0.00,VWS V14.01,2013-05-10 13:34:00,
2013-05-10 06:39:00,47.9,46.0,30.11,NE,34,0.0,0.0,93,0.00,,FEW,0.00,VWS V14.01,2013-05-10 13:39:00,
2013-05-10 06:44:00,48.0,46.4,30.11,NE,34,0.0,0.0,94,0.00,,FEW,0.00,VWS V14.01,2013-05-10 13:44:00,
2013-05-10 06:49:00,48.3,46.7,30.11,NE,34,0.0,0.0,94,0.00,,FEW,0.00,VWS V14.01,2013-05-10 13:49:00,
2013-05-10 06:54:00,48.5,46.9,30.11,NE,34,0.0,0.0,94,0.00,,FEW,0.00,VWS V14.01,2013-05-10 13:54:00,
2013-05-10 06:59:00,48.6,47.0,30.12,NE,34,0.0,0.0,94,0.00,,FEW,0.00,VWS V14.01,2013-05-10 13:59:00,
2013-05-10 07:04:00,48.8,47.2,30.12,NE,34,0.0,0.0,94,0.00,,FEW,0.00,VWS V14.01,2013-05-10 14:04:00,
2013-05-10 07:09:00,48.9,47.2,30.12,NE,34,0.0,0.0,94,0.00,,FEW,0.00,VWS V14.01,2013-05-10 14:09:00,
2013-05-10 07:14:00,49.1,47.5,30.12,NE,34,0.0,0.0,94,0.00,,FEW,0.00,VWS V14.01,2013-05-10 14:14:00,
2013-05-10 07:19:00,49.2,47.5,30.12,NE,34,0.0,0.0,94,0.00,,FEW,0.00,VWS V14.01,2013-05-10 14:19:00,
2013-05-10 07:24:00,49.4,47.8,30.12,NE,34,0.0,0.0,94,0.00,,FEW,0.00,VWS V14.01,2013-05-10 14:24:00,
2013-05-10 07:29:00,49.5,48.1,30.12,NE,34,0.0,0.0,95,0.00,,FEW,0.00,VWS V14.01,2013-05-10 14:29:00,
2013-05-10 07:34:00,49.9,48.5,30.12,NE,34,0.0,0.0,95,0.00,,FEW,0.00,VWS V14.01,2013-05-10 14:34:00,
2013-05-10 07:39:00,50.4,49.0,30.12,NE,34,0.0,0.0,95,0.00,,FEW,0.00,VWS V14.01,2013-05-10 14:39:00,
2013-05-10 07:44:00,50.8,49.4,30.11,NE,34,0.0,0.0,95,0.00,,FEW,0.00,VWS V14.01,2013-05-10 14:44:00,
2013-05-10 07:49:00,51.3,49.9,30.11,NE,34,0.0,0.0,95,0.00,,FEW,0.00,VWS V14.01,2013-05-10 14:49:00,
2013-05-10 07:54:00,51.6,50.2,30.11,NE,34,0.0,0.0,95,0.00,,FEW,0.00,VWS V14.01,2013-05-10 14:54:00,
2013-05-10 07:59:00,52.0,50.6,30.11,NE,34,0.0,0.0,95,0.00,,FEW,0.00,VWS V14.01,2013-05-10 14:59:00,
2013-05-10 08:04:00,52.3,50.9,30.11,NE,34,0.0,0.0,95,0.00,,FEW,0.00,VWS V14.01,2013-05-10 15:04:00,
2013-05-10 08:09:00,52.6,50.9,30.11,NE,34,0.0,0.0,94,0.00,,FEW,0.00,VWS V14.01,2013-05-10 15:09:00,
2013-05-10 08:14:00,52.9,51.2,30.12,NE,34,0.0,0.0,94,0.00,,FEW,0.00,VWS V14.01,2013-05-10 15:14:00,
2013-05-10 08:19:00,53.3,51.6,30.12,NE,34,0.0,0.0,94,0.00,,FEW,0.00,VWS V14.01,2013-05-10 15:19:00,
2013-05-10 08:24:00,54.2,52.2,30.12,NE,34,0.0,0.0,93,0.00,,FEW,0.00,VWS V14.01,2013-05-10 15:24:00,
2013-05-10 08:29:00,55.4,53.1,30.11,NE,34,0.0,0.0,92,0.00,,FEW,0.00,VWS V14.01,2013-05-10 15:29:00,
2013-05-10 08:34:00,56.5,53.0,30.11,NE,34,0.0,0.0,88,0.00,,FEW,0.00,VWS V14.01,2013-05-10 15:34:00,
2013-05-10 08:39:00,57.2,53.1,30.11,NE,34,0.0,0.0,86,0.00,,FEW,0.00,VWS V14.01,2013-05-10 15:39:00,
2013-05-10 08:44:00,58.1,53.0,30.10,NE,34,0.0,0.0,83,0.00,,FEW,0.00,VWS V14.01,2013-05-10 15:44:00,
2013-05-10 08:49:00,58.4,52.3,30.10,East,93,0.0,0.0,80,0.00,,FEW,0.00,VWS V14.01,2013-05-10 15:49:00,
2013-05-10 08:54:00,58.9,52.4,30.10,East,93,0.0,0.0,79,0.00,,FEW,0.00,VWS V14.01,2013-05-10 15:54:00,
2013-05-10 08:59:00,59.3,52.5,30.10,East,93,0.0,0.0,78,0.00,,FEW,0.00,VWS V14.01,2013-05-10 15:59:00,
2013-05-10 09:04:00,59.9,52.7,30.10,East,93,0.0,0.0,77,0.00,,FEW,0.00,VWS V14.01,2013-05-10 16:04:00,
2013-05-10 09:09:00,60.4,52.1,30.10,East,93,0.0,0.0,74,0.00,,FEW,0.00,VWS V14.01,2013-05-10 16:09:00,
2013-05-10 09:14:00,61.0,53.0,30.10,East,93,0.0,0.0,75,0.00,,FEW,0.00,VWS V14.01,2013-05-10 16:14:00,
2013-05-10 09:19:00,61.6,53.2,30.10,East,93,0.0,0.0,74,0.00,,FEW,0.00,VWS V14.01,2013-05-10 16:19:00,
2013-05-10 09:24:00,62.0,53.6,30.10,ESE,122,0.0,0.0,74,0.00,,FEW,0.00,VWS V14.01,2013-05-10 16:24:00,
2013-05-10 09:29:00,62.4,53.6,30.10,ESE,122,0.0,0.0,73,0.00,,FEW,0.00,VWS V14.01,2013-05-10 16:29:00,
2013-05-10 09:34:00,62.7,53.2,30.10,SSE,161,0.0,0.0,71,0.00,,FEW,0.00,VWS V14.01,2013-05-10 16:34:00,
2013-05-10 09:39:00,63.1,52.8,30.10,SSE,161,0.0,0.0,69,0.00,,FEW,0.00,VWS V14.01,2013-05-10 16:39:00,
2013-05-10 09:44:00,63.7,53.7,30.10,SE,135,0.0,0.0,70,0.00,,FEW,0.00,VWS V14.01,2013-05-10 16:44:00,
2013-05-10 09:49:00,64.8,51.5,30.10,NE,54,0.0,0.0,62,0.00,,FEW,0.00,VWS V14.01,2013-05-10 16:49:00,
2013-05-10 09:54:00,65.6,52.2,30.10,NNE,31,0.0,0.0,62,0.00,,FEW,0.00,VWS V14.01,2013-05-10 16:54:00,
2013-05-10 09:59:00,66.3,52.5,30.10,NNE,31,0.0,0.0,61,0.00,,FEW,0.00,VWS V14.01,2013-05-10 16:59:00,
2013-05-10 10:04:00,66.6,52.3,30.10,NNE,20,0.0,0.0,60,0.00,,FEW,0.00,VWS V14.01,2013-05-10 17:04:00,
2013-05-10 10:10:00,67.3,52.5,30.10,ENE,74,0.0,0.0,59,0.00,,FEW,0.00,VWS V14.01,2013-05-10 17:10:00,
2013-05-10 10:15:00,67.8,53.9,30.11,SSE,157,0.0,0.0,61,0.00,,FEW,0.00,VWS V14.01,2013-05-10 17:15:00,
2013-05-10 10:20:00,67.6,53.7,30.11,ESE,110,0.0,0.0,61,0.00,,FEW,0.00,VWS V14.01,2013-05-10 17:20:00,
2013-05-10 10:25:00,68.1,53.2,30.11,South,175,0.0,0.0,59,0.00,,FEW,0.00,VWS V14.01,2013-05-10 17:25:00,
2013-05-10 10:30:00,68.1,53.2,30.11,SE,127,0.0,0.0,59,0.00,,FEW,0.00,VWS V14.01,2013-05-10 17:30:00,
2013-05-10 10:35:00,68.1,53.2,30.11,SE,135,0.0,0.0,59,0.00,,FEW,0.00,VWS V14.01,2013-05-10 17:35:00,
2013-05-10 10:40:00,68.8,53.9,30.11,South,177,0.0,0.0,59,0.00,,FEW,0.00,VWS V14.01,2013-05-10 17:40:00,
2013-05-10 10:45:00,68.1,52.8,30.10,South,177,0.0,0.0,58,0.00,,FEW,0.00,VWS V14.01,2013-05-10 17:45:00,
2013-05-10 10:50:00,68.1,55.0,30.10,SSE,148,0.0,0.0,63,0.00,,FEW,0.00,VWS V14.01,2013-05-10 17:50:00,
2013-05-10 10:55:00,68.4,55.3,30.10,SSE,148,0.0,0.0,63,0.00,,FEW,0.00,VWS V14.01,2013-05-10 17:55:00,
2013-05-10 11:00:00,68.4,53.5,30.10,South,183,0.0,0.0,59,0.00,,FEW,0.00,VWS V14.01,2013-05-10 18:00:00,
2013-05-10 11:05:00,68.4,54.4,30.10,South,180,0.0,0.0,61,0.00,,FEW,0.00,VWS V14.01,2013-05-10 18:05:00,
2013-05-10 11:10:00,69.6,54.2,30.10,SE,135,0.0,0.0,58,0.00,,FEW,0.00,VWS V14.01,2013-05-10 18:10:00,
2013-05-10 11:15:00,70.3,55.3,30.10,SE,126,0.0,0.0,59,0.00,,FEW,0.00,VWS V14.01,2013-05-10 18:15:00,
2013-05-10 11:20:00,70.1,53.2,30.10,SSE,163,0.0,0.0,55,0.00,,FEW,0.00,VWS V14.01,2013-05-10 18:20:00,
2013-05-10 11:25:00,70.3,54.4,30.10,SSE,162,0.0,0.0,57,0.00,,FEW,0.00,VWS V14.01,2013-05-10 18:25:00,
2013-05-10 11:30:00,70.6,55.1,30.10,SSW,192,0.0,0.0,58,0.00,,FEW,0.00,VWS V14.01,2013-05-10 18:30:00,
2013-05-10 11:35:00,71.5,55.5,30.10,SSW,203,0.0,0.0,57,0.00,,FEW,0.00,VWS V14.01,2013-05-10 18:35:00,
2013-05-10 11:40:00,72.0,54.5,30.10,NE,40,0.0,0.0,54,0.00,,FEW,0.00,VWS V14.01,2013-05-10 18:40:00,
2013-05-10 11:45:00,72.7,55.1,30.10,NNE,21,0.0,0.0,54,0.00,,FEW,0.00,VWS V14.01,2013-05-10 18:45:00,
2013-05-10 11:50:00,73.2,54.5,30.10,ESE,114,0.0,0.0,52,0.00,,FEW,0.00,VWS V14.01,2013-05-10 18:50:00,
2013-05-10 11:55:00,74.2,54.9,30.10,NE,51,0.0,1.0,51,0.00,,FEW,0.00,VWS V14.01,2013-05-10 18:55:00,
2013-05-10 12:00:00,74.2,54.4,30.09,SE,138,0.0,0.0,50,0.00,,FEW,0.00,VWS V14.01,2013-05-10 19:00:00,
2013-05-10 12:05:00,74.2,54.9,30.09,SSE,162,0.0,0.0,51,0.00,,FEW,0.00,VWS V14.01,2013-05-10 19:05:00,
2013-05-10 12:10:00,74.6,53.6,30.09,NW,316,4.0,6.0,48,0.00,,FEW,0.00,VWS V14.01,2013-05-10 19:10:00,
2013-05-10 12:15:00,74.9,52.2,30.09,East,88,0.0,6.0,45,0.00,,FEW,0.00,VWS V14.01,2013-05-10 19:15:00,
2013-05-10 12:20:00,74.9,52.8,30.09,North,5,2.0,10.0,46,0.00,,FEW,0.00,VWS V14.01,2013-05-10 19:20:00,
2013-05-10 12:25:00,74.9,50.9,30.09,SE,138,1.0,10.0,43,0.00,,FEW,0.00,VWS V14.01,2013-05-10 19:25:00,
2013-05-10 12:31:00,74.9,52.2,30.08,South,178,2.0,2.0,45,0.00,,FEW,0.00,VWS V14.01,2013-05-10 19:31:00,
2013-05-10 12:36:00,75.6,55.1,30.08,ESE,116,0.0,2.0,49,0.00,,FEW,0.00,VWS V14.01,2013-05-10 19:36:00,
2013-05-10 12:41:00,76.0,53.8,30.08,NW,324,0.0,5.0,46,0.00,,FEW,0.00,VWS V14.01,2013-05-10 19:41:00,
2013-05-10 12:46:00,76.3,54.6,30.08,South,174,0.0,5.0,47,0.00,,FEW,0.00,VWS V14.01,2013-05-10 19:46:00,
2013-05-10 12:51:00,76.5,54.2,30.08,NNE,20,2.0,5.0,46,0.00,,FEW,0.00,VWS V14.01,2013-05-10 19:51:00,
2013-05-10 12:56:00,76.8,52.6,30.08,SSE,166,0.0,5.0,43,0.00,,FEW,0.00,VWS V14.01,2013-05-10 19:56:00,
2013-05-10 13:01:00,76.8,51.3,30.08,NNE,16,2.0,3.0,41,0.00,,FEW,0.00,VWS V14.01,2013-05-10 20:01:00,
2013-05-10 13:06:00,77.2,52.4,30.08,NNW,336,1.0,4.0,42,0.00,,FEW,0.00,VWS V14.01,2013-05-10 20:06:00,
2013-05-10 13:11:00,77.4,52.5,30.08,NE,35,2.0,6.0,42,0.00,,FEW,0.00,VWS V14.01,2013-05-10 20:11:00,
2013-05-10 13:16:00,77.4,52.5,30.08,South,183,0.0,6.0,42,0.00,,FEW,0.00,VWS V14.01,2013-05-10 20:16:00,
2013-05-10 13:21:00,77.4,50.5,30.08,NNE,27,3.0,6.0,39,0.00,,FEW,0.00,VWS V14.01,2013-05-10 20:21:00,
2013-05-10 13:26:00,77.7,51.5,30.08,NE,35,3.0,6.0,40,0.00,,FEW,0.00,VWS V14.01,2013-05-10 20:26:00,
2013-05-10 13:31:00,78.1,52.5,30.07,SSE,165,0.0,2.0,41,0.00,,FEW,0.00,VWS V14.01,2013-05-10 20:31:00,
2013-05-10 13:36:00,78.8,54.4,30.07,NNE,16,4.0,4.0,43,0.00,,FEW,0.00,VWS V14.01,2013-05-10 20:36:00,
2013-05-10 13:41:00,79.0,53.3,30.07,ENE,57,0.0,4.0,41,0.00,,FEW,0.00,VWS V14.01,2013-05-10 20:41:00,
2013-05-10 13:46:00,78.8,48.9,30.07,NE,54,2.0,10.0,35,0.00,,FEW,0.00,VWS V14.01,2013-05-10 20:46:00,
2013-05-10 13:51:00,78.6,50.9,30.07,NNE,29,0.0,10.0,38,0.00,,FEW,0.00,VWS V14.01,2013-05-10 20:51:00,
2013-05-10 13:56:00,79.4,53.0,30.07,NNE,19,0.0,10.0,40,0.00,,FEW,0.00,VWS V14.01,2013-05-10 20:56:00,
2013-05-10 14:01:00,79.8,51.2,30.07,NE,37,2.0,5.0,37,0.00,,FEW,0.00,VWS V14.01,2013-05-10 21:01:00,
2013-05-10 14:06:00,79.4,51.6,30.07,SSW,204,0.0,5.0,38,0.00,,FEW,0.00,VWS V14.01,2013-05-10 21:06:00,
2013-05-10 14:11:00,78.8,53.1,30.07,SSE,152,0.0,5.0,41,0.00,,FEW,0.00,VWS V14.01,2013-05-10 21:11:00,
2013-05-10 14:16:00,78.6,53.0,30.07,South,169,1.0,5.0,41,0.00,,FEW,0.00,VWS V14.01,2013-05-10 21:16:00,
2013-05-10 14:21:00,78.3,52.0,30.07,West,259,0.0,5.0,40,0.00,,FEW,0.00,VWS V14.01,2013-05-10 21:21:00,
2013-05-10 14:26:00,78.8,50.4,30.07,NNE,15,0.0,5.0,37,0.00,,FEW,0.00,VWS V14.01,2013-05-10 21:26:00,
2013-05-10 14:31:00,79.8,50.5,30.07,East,95,1.0,2.0,36,0.00,,FEW,0.00,VWS V14.01,2013-05-10 21:31:00,
2013-05-10 14:36:00,80.3,52.4,30.07,SSW,209,2.0,4.0,38,0.00,,FEW,0.00,VWS V14.01,2013-05-10 21:36:00,
2013-05-10 14:41:00,80.3,51.7,30.07,East,96,0.0,4.0,37,0.00,,FEW,0.00,VWS V14.01,2013-05-10 21:41:00,
2013-05-10 14:46:00,79.9,52.0,30.07,SSE,151,1.0,4.0,38,0.00,,FEW,0.00,VWS V14.01,2013-05-10 21:46:00,
2013-05-10 14:52:00,80.5,53.3,30.07,SE,135,0.0,4.0,39,0.00,,FEW,0.00,VWS V14.01,2013-05-10 21:52:00,
2013-05-10 14:57:00,80.9,51.5,30.07,WNW,301,1.0,4.0,36,0.00,,FEW,0.00,VWS V14.01,2013-05-10 21:57:00,
2013-05-10 14:58:00,80.9,50.7,30.07,NE,45,2.0,4.0,35,0.00,,FEW,0.00,VWS V14.01,2013-05-10 21:58:00,
2013-05-10 15:03:00,81.2,50.2,30.07,NE,42,0.0,2.0,34,0.00,,FEW,0.00,VWS V14.01,2013-05-10 22:03:00,
2013-05-10 15:08:00,81.6,50.5,30.07,SE,143,0.0,2.0,34,0.00,,FEW,0.00,VWS V14.01,2013-05-10 22:08:00,
2013-05-10 15:13:00,81.4,50.4,30.07,NNE,19,5.0,7.0,34,0.00,,FEW,0.00,VWS V14.01,2013-05-10 22:13:00,
2013-05-10 15:18:00,80.7,50.5,30.06,South,180,0.0,7.0,35,0.00,,FEW,0.00,VWS V14.01,2013-05-10 22:18:00,
2013-05-10 15:23:00,80.5,51.1,30.06,South,189,2.0,7.0,36,0.00,,FEW,0.00,VWS V14.01,2013-05-10 22:23:00,
2013-05-10 15:28:00,80.1,51.5,30.06,South,177,1.0,7.0,37,0.00,,FEW,0.00,VWS V14.01,2013-05-10 22:28:00,
2013-05-10 15:33:00,79.9,49.8,30.06,NE,51,2.0,9.0,35,0.00,,FEW,0.00,VWS V14.01,2013-05-10 22:33:00,
2013-05-10 15:38:00,80.1,50.8,30.06,East,81,1.0,9.0,36,0.00,,FEW,0.00,VWS V14.01,2013-05-10 22:38:00,
2013-05-10 15:43:00,80.1,53.6,30.06,East,83,2.0,9.0,40,0.00,,FEW,0.00,VWS V14.01,2013-05-10 22:43:00,
2013-05-10 15:48:00,80.1,49.2,30.05,ENE,76,0.0,9.0,34,0.00,,FEW,0.00,VWS V14.01,2013-05-10 22:48:00,
2013-05-10 15:53:00,80.5,51.1,30.05,ENE,73,0.0,9.0,36,0.00,,FEW,0.00,VWS V14.01,2013-05-10 22:53:00,
2013-05-10 15:58:00,80.9,50.7,30.05,NNW,345,0.0,9.0,35,0.00,,FEW,0.00,VWS V14.01,2013-05-10 22:58:00,
2013-05-10 16:03:00,81.2,51.7,30.05,NNE,23,0.0,4.0,36,0.00,,FEW,0.00,VWS V14.01,2013-05-10 23:03:00,
2013-05-10 16:08:00,81.6,52.1,30.05,NNE,22,1.0,6.0,36,0.00,,FEW,0.00,VWS V14.01,2013-05-10 23:08:00,
2013-05-10 16:13:00,81.4,50.4,30.05,North,5,1.0,6.0,34,0.00,,FEW,0.00,VWS V14.01,2013-05-10 23:13:00,
2013-05-10 16:18:00,80.9,51.5,30.05,NW,324,0.0,6.0,36,0.00,,FEW,0.00,VWS V14.01,2013-05-10 23:18:00,
2013-05-10 16:24:00,81.1,51.7,30.05,NNE,33,1.0,6.0,36,0.00,,FEW,0.00,VWS V14.01,2013-05-10 23:24:00,
2013-05-10 16:29:00,81.1,52.4,30.05,ESE,110,0.0,6.0,37,0.00,,FEW,0.00,VWS V14.01,2013-05-10 23:29:00,
2013-05-10 16:34:00,81.2,51.7,30.05,North,356,2.0,5.0,36,0.00,,FEW,0.00,VWS V14.01,2013-05-10 23:34:00,
2013-05-10 16:39:00,80.7,51.3,30.05,South,183,0.0,5.0,36,0.00,,FEW,0.00,VWS V14.01,2013-05-10 23:39:00,
2013-05-10 16:44:00,80.9,55.0,30.04,SSE,166,2.0,5.0,41,0.00,,FEW,0.00,VWS V14.01,2013-05-10 23:44:00,
2013-05-10 16:49:00,80.9,52.2,30.04,NNW,345,0.0,5.0,37,0.00,,FEW,0.00,VWS V14.01,2013-05-10 23:49:00,
2013-05-10 16:54:00,80.9,52.2,30.04,ENE,60,0.0,5.0,37,0.00,,FEW,0.00,VWS V14.01,2013-05-10 23:54:00,
2013-05-10 16:59:00,80.9,52.2,30.04,NE,49,1.0,5.0,37,0.00,,FEW,0.00,VWS V14.01,2013-05-10 23:59:00,
2013-05-10 17:04:00,80.5,51.9,30.04,NNW,331,0.0,3.0,37,0.00,,FEW,0.00,VWS V14.01,2013-05-11 00:04:00,
2013-05-10 17:09:00,80.3,50.9,30.04,NNW,335,0.0,4.0,36,0.00,,FEW,0.00,VWS V14.01,2013-05-11 00:09:00,
2013-05-10 17:14:00,80.1,51.5,30.04,NNE,30,1.0,4.0,37,0.00,,FEW,0.00,VWS V14.01,2013-05-11 00:14:00,
2013-05-10 17:19:00,79.9,51.3,30.04,NE,35,4.0,6.0,37,0.00,,FEW,0.00,VWS V14.01,2013-05-11 00:19:00,
2013-05-10 17:24:00,79.6,51.1,30.04,NE,55,0.0,6.0,37,0.00,,FEW,0.00,VWS V14.01,2013-05-11 00:24:00,
2013-05-10 17:29:00,79.6,52.5,30.04,NE,55,0.0,6.0,39,0.00,,FEW,0.00,VWS V14.01,2013-05-11 00:29:00,
2013-05-10 17:34:00,79.8,52.0,30.04,NNE,20,0.0,1.0,38,0.00,,FEW,0.00,VWS V14.01,2013-05-11 00:34:00,
2013-05-10 17:39:00,79.8,52.7,30.04,North,5,0.0,2.0,39,0.00,,FEW,0.00,VWS V14.01,2013-05-11 00:39:00,
2013-05-10 17:44:00,79.9,54.1,30.04,North,5,0.0,2.0,41,0.00,,FEW,0.00,VWS V14.01,2013-05-11 00:44:00,
2013-05-10 17:49:00,79.9,52.0,30.04,North,10,0.0,2.0,38,0.00,,FEW,0.00,VWS V14.01,2013-05-11 00:49:00,
2013-05-10 17:54:00,80.1,52.2,30.04,NE,55,1.0,2.0,38,0.00,,FEW,0.00,VWS V14.01,2013-05-11 00:54:00,
2013-05-10 17:59:00,79.9,53.5,30.04,NE,49,0.0,4.0,40,0.00,,FEW,0.00,VWS V14.01,2013-05-11 00:59:00,
2013-05-10 18:04:00,79.6,51.1,30.04,NNW,343,1.0,3.0,37,0.00,,FEW,0.00,VWS V14.01,2013-05-11 01:04:00,
2013-05-10 18:09:00,79.4,51.6,30.04,NE,52,0.0,3.0,38,0.00,,FEW,0.00,VWS V14.01,2013-05-11 01:09:00,
2013-05-10 18:14:00,79.0,53.3,30.04,NE,52,0.0,3.0,41,0.00,,FEW,0.00,VWS V14.01,2013-05-11 01:14:00,
2013-05-10 18:19:00,78.8,54.4,30.04,North,353,0.0,3.0,43,0.00,,FEW,0.00,VWS V14.01,2013-05-11 01:19:00,
2013-05-10 18:24:00,78.5,55.4,30.04,North,353,0.0,3.0,45,0.00,,FEW,0.00,VWS V14.01,2013-05-11 01:24:00,
2013-05-10 18:29:00,77.9,51.7,30.03,North,355,0.0,3.0,40,0.00,,FEW,0.00,VWS V14.01,2013-05-11 01:29:00,
2013-05-10 18:34:00,77.7,55.9,30.03,North,355,0.0,0.0,47,0.00,,FEW,0.00,VWS V14.01,2013-05-11 01:34:00,
2013-05-10 18:39:00,77.4,56.2,30.03,North,355,0.0,1.0,48,0.00,,FEW,0.00,VWS V14.01,2013-05-11 01:39:00,
2013-05-10 18:44:00,77.0,57.0,30.03,North,355,0.0,1.0,50,0.00,,FEW,0.00,VWS V14.01,2013-05-11 01:44:00,
2013-05-10 18:49:00,76.7,56.7,30.03,North,355,0.0,1.0,50,0.00,,FEW,0.00,VWS V14.01,2013-05-11 01:49:00,
2013-05-10 18:54:00,76.3,56.9,30.03,North,355,0.0,1.0,51,0.00,,FEW,0.00,VWS V14.01,2013-05-11 01:54:00,
2013-05-10 19:00:00,76.1,57.2,30.03,North,355,0.0,1.0,52,0.00,,FEW,0.00,VWS V14.01,2013-05-11 02:00:00,
2013-05-10 19:05:00,76.0,57.7,30.03,North,355,0.0,0.0,53,0.00,,FEW,0.00,VWS V14.01,2013-05-11 02:05:00,
2013-05-10 19:10:00,75.6,57.8,30.03,North,355,0.0,0.0,54,0.00,,FEW,0.00,VWS V14.01,2013-05-11 02:10:00,
2013-05-10 19:15:00,75.4,58.1,30.04,North,355,0.0,0.0,55,0.00,,FEW,0.00,VWS V14.01,2013-05-11 02:15:00,
2013-05-10 19:20:00,75.1,57.8,30.04,North,355,0.0,0.0,55,0.00,,FEW,0.00,VWS V14.01,2013-05-11 02:20:00,
2013-05-10 19:25:00,74.7,58.0,30.04,North,355,0.0,0.0,56,0.00,,FEW,0.00,VWS V14.01,2013-05-11 02:25:00,
2013-05-10 19:30:00,74.4,57.7,30.04,North,355,0.0,0.0,56,0.00,,FEW,0.00,VWS V14.01,2013-05-11 02:30:00,
2013-05-10 19:35:00,73.7,57.5,30.04,North,355,0.0,0.0,57,0.00,,FEW,0.00,VWS V14.01,2013-05-11 02:35:00,
2013-05-10 19:40:00,73.2,58.0,30.04,North,355,0.0,0.0,59,0.00,,FEW,0.00,VWS V14.01,2013-05-11 02:40:00,
2013-05-10 19:45:00,72.7,58.0,30.04,North,355,0.0,0.0,60,0.00,,FEW,0.00,VWS V14.01,2013-05-11 02:45:00,
2013-05-10 19:50:00,72.3,58.6,30.04,North,355,0.0,0.0,62,0.00,,FEW,0.00,VWS V14.01,2013-05-11 02:50:00,
2013-05-10 19:55:00,71.8,58.5,30.04,North,355,0.0,0.0,63,0.00,,FEW,0.00,VWS V14.01,2013-05-11 02:55:00,
2013-05-10 20:00:00,71.3,58.9,30.04,North,355,0.0,0.0,65,0.00,,FEW,0.00,VWS V14.01,2013-05-11 03:00:00,
2013-05-10 20:05:00,70.8,58.5,30.04,North,355,0.0,0.0,65,0.00,,FEW,0.00,VWS V14.01,2013-05-11 03:05:00,
2013-05-10 20:10:00,70.4,58.5,30.04,North,355,0.0,0.0,66,0.00,,FEW,0.00,VWS V14.01,2013-05-11 03:10:00,
2013-05-10 20:15:00,69.9,58.0,30.05,North,355,0.0,0.0,66,0.00,,FEW,0.00,VWS V14.01,2013-05-11 03:15:00,
2013-05-10 20:20:00,69.4,58.4,30.05,North,355,0.0,0.0,68,0.00,,FEW,0.00,VWS V14.01,2013-05-11 03:20:00,
2013-05-10 20:25:00,69.1,58.1,30.05,North,355,0.0,0.0,68,0.00,,FEW,0.00,VWS V14.01,2013-05-11 03:25:00,
2013-05-10 20:30:00,68.8,57.4,30.05,North,355,0.0,0.0,67,0.00,,FEW,0.00,VWS V14.01,2013-05-11 03:30:00,
2013-05-10 20:35:00,68.3,57.3,30.05,North,355,0.0,0.0,68,0.00,,FEW,0.00,VWS V14.01,2013-05-11 03:35:00,
2013-05-10 20:40:00,67.9,57.4,30.05,North,355,0.0,0.0,69,0.00,,FEW,0.00,VWS V14.01,2013-05-11 03:40:00,
2013-05-10 20:45:00,67.6,56.3,30.05,North,355,0.0,0.0,67,0.00,,FEW,0.00,VWS V14.01,2013-05-11 03:45:00,
2013-05-10 20:50:00,67.3,56.0,30.05,North,355,0.0,0.0,67,0.00,,FEW,0.00,VWS V14.01,2013-05-11 03:50:00,
2013-05-10 20:55:00,66.9,56.0,30.05,North,355,0.0,0.0,68,0.00,,FEW,0.00,VWS V14.01,2013-05-11 03:55:00,
2013-05-10 21:00:00,66.8,56.3,30.06,North,355,0.0,0.0,69,0.00,,FEW,0.00,VWS V14.01,2013-05-11 04:00:00,
2013-05-10 21:01:00,66.8,56.3,30.06,North,355,0.0,0.0,69,0.00,,FEW,0.00,VWS V14.01,2013-05-11 04:01:00,
2013-05-10 21:02:00,66.6,56.1,30.06,North,355,0.0,0.0,69,0.00,,FEW,0.00,VWS V14.01,2013-05-11 04:02:00,
2013-05-10 21:07:00,66.3,55.8,30.06,North,355,0.0,0.0,69,0.00,,FEW,0.00,VWS V14.01,2013-05-11 04:07:00,
2013-05-10 21:12:00,66.1,56.0,30.06,North,355,0.0,0.0,70,0.00,,FEW,0.00,VWS V14.01,2013-05-11 04:12:00,
2013-05-10 21:17:00,65.8,55.8,30.06,North,355,0.0,0.0,70,0.00,,FEW,0.00,VWS V14.01,2013-05-11 04:17:00,
2013-05-10 21:22:00,65.6,56.3,30.06,North,355,0.0,0.0,72,0.00,,FEW,0.00,VWS V14.01,2013-05-11 04:22:00,
2013-05-10 21:27:00,65.3,56.4,30.06,North,355,0.0,0.0,73,0.00,,FEW,0.00,VWS V14.01,2013-05-11 04:27:00,
2013-05-10 21:32:00,65.0,56.2,30.06,North,355,0.0,0.0,73,0.00,,FEW,0.00,VWS V14.01,2013-05-11 04:32:00,
2013-05-10 21:37:00,64.7,56.2,30.06,North,355,0.0,0.0,74,0.00,,FEW,0.00,VWS V14.01,2013-05-11 04:37:00,
2013-05-10 21:42:00,64.5,56.4,30.06,North,355,0.0,0.0,75,0.00,,FEW,0.00,VWS V14.01,2013-05-11 04:42:00,
2013-05-10 21:47:00,64.3,56.2,30.07,North,355,0.0,0.0,75,0.00,,FEW,0.00,VWS V14.01,2013-05-11 04:47:00,
2013-05-10 21:52:00,64.0,55.9,30.07,North,355,0.0,0.0,75,0.00,,FEW,0.00,VWS V14.01,2013-05-11 04:52:00,
2013-05-10 21:57:00,63.7,55.6,30.07,North,355,0.0,0.0,75,0.00,,FEW,0.00,VWS V14.01,2013-05-11 04:57:00,
2013-05-10 22:02:00,63.5,55.4,30.08,North,355,0.0,0.0,75,0.00,,FEW,0.00,VWS V14.01,2013-05-11 05:02:00,
2013-05-10 22:07:00,63.2,55.5,30.08,North,355,0.0,0.0,76,0.00,,FEW,0.00,VWS V14.01,2013-05-11 05:07:00,
2013-05-10 22:12:00,63.1,55.8,30.08,North,355,0.0,0.0,77,0.00,,FEW,0.00,VWS V14.01,2013-05-11 05:12:00,
2013-05-10 22:17:00,62.7,55.8,30.08,North,355,0.0,0.0,78,0.00,,FEW,0.00,VWS V14.01,2013-05-11 05:17:00,
2013-05-10 22:22:00,62.6,55.7,30.08,North,355,0.0,0.0,78,0.00,,FEW,0.00,VWS V14.01,2013-05-11 05:22:00,
2013-05-10 22:27:00,62.4,55.5,30.08,North,355,0.0,0.0,78,0.00,,FEW,0.00,VWS V14.01,2013-05-11 05:27:00,
2013-05-10 22:32:00,62.1,55.5,30.08,North,355,0.0,0.0,79,0.00,,FEW,0.00,VWS V14.01,2013-05-11 05:32:00,
2013-05-10 22:37:00,61.8,55.2,30.08,North,355,0.0,0.0,79,0.00,,FEW,0.00,VWS V14.01,2013-05-11 05:37:00,
2013-05-10 22:42:00,61.6,55.0,30.08,North,355,0.0,0.0,79,0.00,,FEW,0.00,VWS V14.01,2013-05-11 05:42:00,
2013-05-10 22:47:00,61.3,54.7,30.08,North,355,0.0,0.0,79,0.00,,FEW,0.00,VWS V14.01,2013-05-11 05:47:00,
2013-05-10 22:52:00,61.2,55.0,30.08,North,355,0.0,0.0,80,0.00,,FEW,0.00,VWS V14.01,2013-05-11 05:52:00,
2013-05-10 22:57:00,60.9,55.0,30.08,North,355,0.0,0.0,81,0.00,,FEW,0.00,VWS V14.01,2013-05-11 05:57:00,
2013-05-10 23:02:00,60.7,54.8,30.09,North,355,0.0,0.0,81,0.00,,FEW,0.00,VWS V14.01,2013-05-11 06:02:00,
2013-05-10 23:07:00,60.5,54.7,30.09,North,355,0.0,0.0,81,0.00,,FEW,0.00,VWS V14.01,2013-05-11 06:07:00,
2013-05-10 23:12:00,60.5,54.7,30.09,North,355,0.0,0.0,81,0.00,,FEW,0.00,VWS V14.01,2013-05-11 06:12:00,
2013-05-10 23:17:00,60.4,54.9,30.09,North,355,0.0,0.0,82,0.00,,FEW,0.00,VWS V14.01,2013-05-11 06:17:00,
2013-05-10 23:22:00,60.2,54.7,30.09,North,355,0.0,0.0,82,0.00,,FEW,0.00,VWS V14.01,2013-05-11 06:22:00,
2013-05-10 23:27:00,60.2,55.0,30.09,North,355,0.0,0.0,83,0.00,,FEW,0.00,VWS V14.01,2013-05-11 06:27:00,
2013-05-10 23:32:00,60.2,55.0,30.09,North,355,0.0,0.0,83,0.00,,FEW,0.00,VWS V14.01,2013-05-11 06:32:00,
2013-05-10 23:37:00,60.1,55.3,30.09,North,355,0.0,0.0,84,0.00,,FEW,0.00,VWS V14.01,2013-05-11 06:37:00,
2013-05-10 23:42:00,60.1,55.3,30.09,North,355,0.0,0.0,84,0.00,,FEW,0.00,VWS V14.01,2013-05-11 06:42:00,
2013-05-10 23:47:00,59.9,55.1,30.09,North,355,0.0,0.0,84,0.00,,FEW,0.00,VWS V14.01,2013-05-11 06:47:00,
2013-05-10 23:52:00,59.8,55.0,30.09,North,355,0.0,0.0,84,0.00,,FEW,0.00,VWS V14.01,2013-05-11 06:52:00,
2013-05-10 23:57:00,59.5,54.7,30.09,North,355,0.0,0.0,84,0.00,,FEW,0.00,VWS V14.01,2013-05-11 06:57:00,